Time;durP1;ratioP1;P1;durP2;ratioP2;P2;SDS_P1;SDS_P2;PMS_P1;PMS_P2;Temp;Humidity;BMP_temperature;BMP_pressure;BME280_temperature;BME280_humidity;BME280_pressure;Samples;Min_cycle;Max_cycle;Signal;HPM_P1;HPM_P2
2023/09/20 00:00:12;;;;;;;5.63;2.42;;;;;;;21.40;45.86;100344.81;679776;29;1098;-86
2023/09/20 00:00:33;;;;;;;5.60;2.30;;;;;;;21.47;46.02;100359.69;682718;29;1310;-90
2023/09/20 00:00:54;;;;;;;6.93;2.47;;;;;;;21.48;45.72;100358.75;677024;29;1270;-89
2023/09/20 00:01:15;;;;;;;7.20;2.40;;;;;;;21.40;45.80;100356.31;672398;29;1318;-89
2023/09/20 00:01:36;;;;;;;7.18;2.40;;;;;;;21.42;46.01;100353.59;677600;29;1263;-89
2023/09/20 00:01:57;;;;;;;8.00;2.42;;;;;;;21.40;45.95;100350.13;682476;29;1324;-88
2023/09/20 00:02:18;;;;;;;6.88;2.58;;;;;;;21.41;46.06;100354.50;679790;29;1159;-88
2023/09/20 00:02:42;;;;;;;6.28;2.40;;;;;;;21.46;45.95;100356.13;679872;29;1213;-85
2023/09/20 00:03:04;;;;;;;7.00;2.20;;;;;;;21.40;45.91;100360.72;679530;29;1274;-87
2023/09/20 00:03:25;;;;;;;7.65;2.20;;;;;;;21.48;46.17;100364.06;679952;29;1207;-91
2023/09/20 00:03:46;;;;;;;5.05;2.20;;;;;;;21.46;46.05;100360.59;672181;29;1362;-89
2023/09/20 00:04:07;;;;;;;5.73;2.40;;;;;;;21.45;46.05;100353.53;670802;29;1194;-89
2023/09/20 00:04:29;;;;;;;5.68;2.38;;;;;;;21.51;45.98;100361.38;674763;29;1276;-88
2023/09/20 00:04:50;;;;;;;6.13;2.40;;;;;;;21.48;45.88;100366.72;672220;29;1233;-90
2023/09/20 00:05:14;;;;;;;5.35;2.20;;;;;;;21.43;45.86;100344.72;670455;29;1287;-92
2023/09/20 00:05:39;;;;;;;4.95;2.20;;;;;;;21.52;45.89;100356.94;672363;29;1297;-89
2023/09/20 00:06:00;;;;;;;5.00;2.40;;;;;;;21.54;45.77;100358.66;675067;29;1108;-87
2023/09/20 00:06:21;;;;;;;5.20;2.55;;;;;;;21.55;45.86;100363.06;679894;29;1136;-90
2023/09/20 00:06:42;;;;;;;4.90;2.40;;;;;;;21.57;45.74;100363.88;678901;29;1227;-88
2023/09/20 00:07:06;;;;;;;4.55;2.40;;;;;;;21.55;45.73;100355.09;674550;29;1267;-91
2023/09/20 00:07:27;;;;;;;4.60;2.40;;;;;;;21.55;45.49;100355.09;674601;29;1258;-88
2023/09/20 00:07:54;;;;;;;4.80;2.50;;;;;;;21.54;45.77;100366.63;671525;29;1307;-85
2023/09/20 00:08:15;;;;;;;5.82;2.70;;;;;;;21.60;45.64;100352.31;671902;29;1207;-92
2023/09/20 00:08:36;;;;;;;5.88;2.70;;;;;;;21.54;45.66;100353.34;674655;29;1175;-89
2023/09/20 00:08:58;;;;;;;5.72;2.47;;;;;;;21.57;45.72;100352.41;678632;29;1253;-95
2023/09/20 00:09:19;;;;;;;5.05;2.58;;;;;;;21.56;45.88;100361.25;677284;29;1345;-91
2023/09/20 00:09:40;;;;;;;5.07;2.70;;;;;;;21.59;45.69;100359.41;677260;29;1140;-88
2023/09/20 00:10:01;;;;;;;5.20;2.80;;;;;;;21.57;45.58;100350.59;677355;29;1210;-90
2023/09/20 00:10:23;;;;;;;4.53;2.45;;;;;;;21.63;45.54;100361.06;677212;29;1209;-91
2023/09/20 00:10:45;;;;;;;4.25;2.40;;;;;;;21.54;45.74;100355.13;672366;29;1196;-87
2023/09/20 00:11:07;;;;;;;3.60;2.20;;;;;;;21.62;45.56;100359.34;672432;29;997;-87
2023/09/20 00:11:28;;;;;;;3.90;2.30;;;;;;;21.55;45.67;100365.72;671507;29;1439;-90
2023/09/20 00:11:48;;;;;;;3.53;2.10;;;;;;;21.57;45.81;100358.56;673817;29;1185;-89
2023/09/20 00:12:10;;;;;;;3.80;2.20;;;;;;;21.62;45.54;100354.03;674409;29;1504;-91
2023/09/20 00:12:30;;;;;;;3.90;2.30;;;;;;;21.58;45.56;100355.00;672535;29;1232;-89
2023/09/20 00:12:51;;;;;;;4.47;2.40;;;;;;;21.59;45.60;100362.03;674453;29;1159;-93
2023/09/20 00:13:14;;;;;;;4.43;2.40;;;;;;;21.57;45.55;100349.75;679676;29;1034;-89
2023/09/20 00:13:36;;;;;;;5.57;2.65;;;;;;;21.58;45.67;100360.31;675165;29;875;-94
2023/09/20 00:13:59;;;;;;;5.53;2.65;;;;;;;21.59;45.65;100351.44;675016;29;1334;-89
2023/09/20 00:14:20;;;;;;;5.35;2.67;;;;;;;21.53;45.63;100351.59;677506;29;1239;-90
2023/09/20 00:14:41;;;;;;;5.30;2.58;;;;;;;21.57;45.55;100349.75;679215;29;1298;-88
2023/09/20 00:15:02;;;;;;;5.32;2.70;;;;;;;21.63;45.68;100353.13;682492;29;1092;-88
2023/09/20 00:15:23;;;;;;;5.07;2.60;;;;;;;21.61;45.65;100365.56;682504;29;1278;-90
2023/09/20 00:15:44;;;;;;;4.97;2.50;;;;;;;21.58;45.79;100362.97;677210;29;1290;-89
2023/09/20 00:16:05;;;;;;;5.00;2.40;;;;;;;21.54;45.65;100350.69;677267;29;1125;-88
2023/09/20 00:16:27;;;;;;;4.00;2.10;;;;;;;21.52;45.74;100360.47;679326;29;1307;-87
2023/09/20 00:16:48;;;;;;;7.30;2.50;;;;;;;21.54;45.80;100350.69;677134;29;999;-88
2023/09/20 00:17:08;;;;;;;7.20;2.60;;;;;;;21.51;45.64;100345.44;677424;29;1960;-89
2023/09/20 00:17:33;;;;;;;10.05;2.97;;;;;;;21.56;45.79;100362.13;680093;29;1193;-88
2023/09/20 00:17:54;;;;;;;8.70;2.70;;;;;;;21.50;45.79;100360.50;679354;29;1413;-89
2023/09/20 00:18:15;;;;;;;8.53;2.73;;;;;;;21.56;45.75;100355.94;677230;29;956;-87
2023/09/20 00:18:36;;;;;;;6.35;2.35;;;;;;;21.53;45.69;100351.59;676853;29;1289;-89
2023/09/20 00:18:57;;;;;;;5.82;2.38;;;;;;;21.59;45.82;100372.66;676734;29;1153;-87
2023/09/20 00:19:18;;;;;;;5.63;2.47;;;;;;;21.55;45.84;100371.00;677447;29;1095;-90
2023/09/20 00:19:42;;;;;;;6.53;2.75;;;;;;;21.46;45.90;100339.34;677016;29;1153;-90
2023/09/20 00:20:12;;;;;;;7.28;2.90;;;;;;;21.51;45.82;100350.75;678204;29;1359;-88
2023/09/20 00:20:33;;;;;;;5.70;2.60;;;;;;;21.44;46.10;100342.03;677459;29;924;-89
2023/09/20 00:20:54;;;;;;;5.80;2.67;;;;;;;21.44;46.30;100357.06;674421;29;1168;-89
2023/09/20 00:21:15;;;;;;;7.28;3.00;;;;;;;21.39;46.23;100356.34;677265;29;1095;-89
2023/09/20 00:21:35;;;;;;;7.20;3.10;;;;;;;21.33;46.32;100338.78;677352;29;1170;-89
2023/09/20 00:21:56;;;;;;;5.90;2.70;;;;;;;21.40;46.36;100356.31;676736;29;1274;-89
2023/09/20 00:22:17;;;;;;;5.28;2.67;;;;;;;21.37;46.38;100357.25;677221;29;1034;-86
2023/09/20 00:22:42;;;;;;;5.10;2.70;;;;;;;21.39;46.37;100349.22;674773;29;1389;-89
2023/09/20 00:23:03;;;;;;;4.60;2.58;;;;;;;21.32;46.31;100342.31;677256;29;1372;-91
2023/09/20 00:23:25;;;;;;;4.32;2.08;;;;;;;21.29;46.40;100345.94;672106;29;1333;-88
2023/09/20 00:23:46;;;;;;;4.53;2.03;;;;;;;21.29;46.13;100345.06;674563;29;1250;-87
2023/09/20 00:24:07;;;;;;;5.53;2.30;;;;;;;21.29;46.14;100356.56;675975;29;1166;-90
2023/09/20 00:24:28;;;;;;;5.00;2.35;;;;;;;21.34;46.55;100367.06;671980;29;1207;-89
2023/09/20 00:24:49;;;;;;;5.15;2.30;;;;;;;21.28;46.58;100362.78;679392;29;1163;-88
2023/09/20 00:25:14;;;;;;;5.13;2.60;;;;;;;21.28;46.37;100370.75;677416;29;1209;-89
2023/09/20 00:25:35;;;;;;;6.40;3.13;;;;;;;21.32;46.49;100374.16;680087;29;1348;-87
2023/09/20 00:25:56;;;;;;;6.03;3.00;;;;;;;21.26;46.52;100356.63;682612;28;1246;-88
2023/09/20 00:26:18;;;;;;;6.00;2.73;;;;;;;21.39;46.35;100354.53;682428;28;966;-91
2023/09/20 00:26:42;;;;;;;4.93;2.42;;;;;;;21.29;46.46;100359.22;677109;29;1379;-85
2023/09/20 00:27:03;;;;;;;5.20;2.40;;;;;;;21.32;46.41;100364.44;677413;29;1185;-88
2023/09/20 00:27:23;;;;;;;4.32;2.50;;;;;;;21.32;46.35;100364.44;677319;29;1193;-88
2023/09/20 00:27:45;;;;;;;4.53;2.50;;;;;;;21.24;46.53;100355.78;679654;29;1019;-91
2023/09/20 00:28:06;;;;;;;3.92;2.38;;;;;;;21.30;46.40;100379.53;682191;29;1397;-88
2023/09/20 00:28:27;;;;;;;3.58;2.17;;;;;;;21.31;46.47;100360.03;677307;29;1226;-87
2023/09/20 00:28:49;;;;;;;3.13;1.95;;;;;;;21.24;46.51;100355.78;677060;29;1370;-90
2023/09/20 00:29:10;;;;;;;3.53;2.10;;;;;;;21.31;46.57;100367.13;674516;29;1042;-89
2023/09/20 00:29:31;;;;;;;3.83;2.30;;;;;;;21.35;46.41;100368.81;675188;29;1358;-89
2023/09/20 00:29:52;;;;;;;3.83;2.30;;;;;;;21.29;46.40;100359.22;677120;29;1243;-88
2023/09/20 00:30:19;;;;;;;5.30;2.27;;;;;;;21.27;46.56;100358.34;674689;29;1092;-91
2023/09/20 00:30:39;;;;;;;7.60;2.40;;;;;;;21.34;46.41;100367.91;674883;29;1032;-87
2023/09/20 00:31:01;;;;;;;7.82;2.58;;;;;;;21.31;46.46;100373.31;672529;29;1056;-89
2023/09/20 00:31:22;;;;;;;6.20;2.47;;;;;;;21.31;46.53;100367.13;674682;29;1105;-88
2023/09/20 00:31:43;;;;;;;4.78;2.47;;;;;;;21.24;46.32;100350.47;676887;29;1298;-90
2023/09/20 00:32:04;;;;;;;3.90;2.10;;;;;;;21.29;46.44;100353.03;677189;29;1142;-88
2023/09/20 00:32:47;;;;;;;3.30;1.90;;;;;;;21.33;46.61;100371.50;679708;29;1338;-92
2023/09/20 00:33:10;;;;;;;7.72;2.70;;;;;;;21.27;46.64;100347.75;680070;29;1313;-91
2023/09/20 00:33:30;;;;;;;7.68;2.65;;;;;;;21.25;46.42;100354.03;680003;29;800;-87
2023/09/20 00:33:52;;;;;;;6.73;2.43;;;;;;;21.29;46.75;100353.91;679226;29;1159;-90
2023/09/20 00:34:13;;;;;;;4.32;2.30;;;;;;;21.31;46.75;100362.69;679732;29;1327;-89
2023/09/20 00:34:34;;;;;;;4.45;2.40;;;;;;;21.28;46.55;100356.59;676793;29;1096;-89
2023/09/20 00:34:54;;;;;;;5.83;2.60;;;;;;;21.21;46.79;100350.56;677127;29;1146;-91
2023/09/20 00:35:17;;;;;;;5.88;2.40;;;;;;;21.17;46.84;100356.84;679859;28;1280;-91
2023/09/20 00:35:40;;;;;;;5.40;2.43;;;;;;;21.23;46.81;100352.25;677391;29;1020;-93
2023/09/20 00:36:01;;;;;;;3.97;2.20;;;;;;;21.23;46.84;100348.75;679943;29;1115;-92
2023/09/20 00:36:23;;;;;;;3.80;2.20;;;;;;;21.14;46.74;100360.41;676945;29;1253;-89
2023/09/20 00:36:44;;;;;;;4.30;2.22;;;;;;;21.20;46.93;100386.81;679685;29;1282;-91
2023/09/20 00:37:05;;;;;;;4.57;2.50;;;;;;;21.13;46.88;100357.81;679857;29;2003;-90
2023/09/20 00:37:25;;;;;;;4.65;2.60;;;;;;;21.08;47.19;100355.25;679905;29;1240;-87
2023/09/20 00:37:48;;;;;;;3.83;2.30;;;;;;;21.19;46.95;100378.88;679604;29;1165;-88
2023/09/20 00:38:09;;;;;;;4.00;2.30;;;;;;;21.18;47.06;100375.38;674456;29;1386;-89
2023/09/20 00:38:29;;;;;;;4.90;2.63;;;;;;;21.13;47.03;100368.44;679056;29;1337;-89
2023/09/20 00:38:51;;;;;;;5.10;2.67;;;;;;;21.12;46.98;100361.34;679720;29;1019;-89
2023/09/20 00:39:14;;;;;;;6.47;2.90;;;;;;;21.13;46.99;100363.13;679503;29;1140;-88
2023/09/20 00:39:36;;;;;;;5.90;2.60;;;;;;;21.16;47.12;100361.28;674835;29;939;-87
2023/09/20 00:39:56;;;;;;;5.82;2.60;;;;;;;21.18;46.83;100363.88;674568;29;1351;-88
2023/09/20 00:40:18;;;;;;;5.30;2.50;;;;;;;21.18;46.67;100356.81;677257;29;1143;-87
2023/09/20 00:40:39;;;;;;;5.90;2.70;;;;;;;21.14;46.82;100359.56;679884;29;1298;-87
2023/09/20 00:41:06;;;;;;;6.82;2.80;;;;;;;21.08;47.08;100358.78;677281;29;1107;-89
2023/09/20 00:41:28;;;;;;;7.15;2.72;;;;;;;21.08;47.05;100356.13;677247;29;1229;-88
2023/09/20 00:41:50;;;;;;;4.90;2.50;;;;;;;21.09;47.04;100349.06;676398;29;1289;-87
2023/09/20 00:42:10;;;;;;;3.80;2.53;;;;;;;21.11;46.92;100363.16;677228;29;1041;-88
2023/09/20 00:42:31;;;;;;;3.42;2.40;;;;;;;21.07;47.14;100353.50;674615;29;1345;-91
2023/09/20 00:42:57;;;;;;;4.10;2.23;;;;;;;21.09;47.20;100351.72;679661;29;1399;-88
2023/09/20 00:43:27;;;;;;;5.68;2.13;;;;;;;21.03;47.17;100347.41;679025;29;1207;-88
2023/09/20 00:43:48;;;;;;;6.13;2.35;;;;;;;21.04;47.05;100348.28;679756;29;1038;-87
2023/09/20 00:44:09;;;;;;;4.57;2.67;;;;;;;21.09;47.14;100354.38;679771;29;1421;-89
2023/09/20 00:44:30;;;;;;;5.20;3.00;;;;;;;21.12;47.14;100362.25;677304;29;1542;-91
2023/09/20 00:44:51;;;;;;;5.32;3.00;;;;;;;21.02;47.13;100350.97;677086;29;1363;-90
2023/09/20 00:45:13;;;;;;;4.70;2.70;;;;;;;21.01;47.15;100348.38;674071;29;1245;-88
2023/09/20 00:45:36;;;;;;;4.47;2.30;;;;;;;21.08;47.12;100356.13;679210;29;1366;-88
2023/09/20 00:46:00;;;;;;;6.75;2.38;;;;;;;21.10;46.94;100354.31;674949;29;1310;-87
2023/09/20 00:46:21;;;;;;;6.82;2.35;;;;;;;21.03;47.27;100342.09;679725;29;1371;-90
2023/09/20 00:46:44;;;;;;;5.25;2.40;;;;;;;21.03;47.12;100341.25;676350;29;1260;-88
2023/09/20 00:47:05;;;;;;;5.43;2.50;;;;;;;21.06;47.26;100354.41;674715;29;1321;-90
2023/09/20 00:47:26;;;;;;;5.80;2.63;;;;;;;21.05;47.28;100360.63;677230;29;1198;-88
2023/09/20 00:47:51;;;;;;;5.28;2.50;;;;;;;21.02;47.41;100355.41;681862;29;1624;-88
2023/09/20 00:48:13;;;;;;;5.25;2.30;;;;;;;20.95;47.72;100352.00;677154;29;1047;-89
2023/09/20 00:48:34;;;;;;;5.20;2.40;;;;;;;20.90;47.63;100356.56;679044;29;1229;-88
2023/09/20 00:48:56;;;;;;;4.82;2.40;;;;;;;21.00;47.59;100362.50;676679;29;1196;-86
2023/09/20 00:49:18;;;;;;;6.25;2.20;;;;;;;21.00;47.46;100360.75;676964;29;1124;-89
2023/09/20 00:49:38;;;;;;;6.15;2.10;;;;;;;20.90;47.58;100346.81;674617;29;1316;-87
2023/09/20 00:50:00;;;;;;;6.45;2.40;;;;;;;20.94;47.74;100347.59;674706;29;1422;-88
2023/09/20 00:50:21;;;;;;;8.95;2.78;;;;;;;20.92;47.56;100352.97;677269;29;1218;-88
2023/09/20 00:50:43;;;;;;;8.65;2.70;;;;;;;20.94;47.54;100358.22;677213;29;1266;-92
2023/09/20 00:51:05;;;;;;;7.45;2.35;;;;;;;20.88;47.99;100353.03;675478;29;1389;-88
2023/09/20 00:51:26;;;;;;;3.78;2.00;;;;;;;20.94;47.69;100353.81;679273;29;1247;-88
2023/09/20 00:51:47;;;;;;;5.10;2.10;;;;;;;20.89;47.68;100344.22;673907;29;1264;-90
2023/09/20 00:52:08;;;;;;;8.60;2.70;;;;;;;20.90;47.62;100348.59;675745;29;1197;-90
2023/09/20 00:52:29;;;;;;;8.20;2.70;;;;;;;20.92;47.70;100349.44;674647;29;1266;-89
2023/09/20 00:52:54;;;;;;;7.90;2.80;;;;;;;20.93;47.59;100351.16;679301;29;1225;-85
2023/09/20 00:53:16;;;;;;;4.78;2.50;;;;;;;20.96;47.45;100359.03;674575;29;1378;-92
2023/09/20 00:53:38;;;;;;;5.50;2.80;;;;;;;20.95;47.71;100360.84;674632;29;1208;-88
2023/09/20 00:54:03;;;;;;;5.25;2.83;;;;;;;20.93;47.56;100356.47;673897;29;1161;-90
2023/09/20 00:54:25;;;;;;;6.15;2.70;;;;;;;21.00;47.65;100362.50;679949;29;978;-88
2023/09/20 00:54:46;;;;;;;6.70;2.33;;;;;;;20.92;47.49;100354.72;679775;29;1450;-89
2023/09/20 00:55:20;;;;;;;6.57;2.33;;;;;;;20.94;47.61;100353.81;676975;29;1795;-89
2023/09/20 00:55:45;;;;;;;12.68;2.67;;;;;;;20.92;47.46;100350.31;674550;29;1277;-89
2023/09/20 00:56:09;;;;;;;11.40;2.40;;;;;;;20.92;47.72;100352.97;679686;29;1182;-87
2023/09/20 00:56:31;;;;;;;6.05;2.42;;;;;;;20.91;47.79;100356.50;679908;29;1268;-89
2023/09/20 00:56:52;;;;;;;6.15;2.38;;;;;;;20.88;47.78;100350.38;674383;29;1247;-89
2023/09/20 00:57:13;;;;;;;7.45;2.85;;;;;;;20.92;47.67;100355.63;678947;29;1919;-87
2023/09/20 00:57:34;;;;;;;6.72;2.72;;;;;;;20.91;47.48;100355.66;682612;29;1424;-88
2023/09/20 00:58:04;;;;;;;7.78;2.75;;;;;;;20.88;48.00;100353.03;682058;29;1465;-89
2023/09/20 00:58:25;;;;;;;6.70;2.60;;;;;;;20.86;47.90;100353.09;677220;29;1278;-88
2023/09/20 00:58:46;;;;;;;6.30;2.60;;;;;;;20.87;47.95;100361.91;676981;29;1109;-90
2023/09/20 00:59:08;;;;;;;3.67;2.53;;;;;;;20.81;48.15;100357.63;674103;29;1276;-89
2023/09/20 00:59:31;;;;;;;4.80;2.50;;;;;;;20.84;47.95;100346.94;679939;29;1384;-88
2023/09/20 00:59:51;;;;;;;5.45;2.45;;;;;;;20.88;47.83;100363.66;676229;29;1406;-87
2023/09/20 01:00:21;;;;;;;5.33;2.50;;;;;;;20.78;47.87;100347.94;678986;29;1207;-88
2023/09/20 01:00:43;;;;;;;6.30;2.63;;;;;;;20.80;47.73;100339.97;677294;29;1283;-91
2023/09/20 01:01:04;;;;;;;6.78;2.72;;;;;;;20.84;48.00;100356.69;679109;29;1258;-88
2023/09/20 01:01:28;;;;;;;6.85;2.80;;;;;;;20.91;48.12;100368.91;679861;29;1066;-90
2023/09/20 01:01:49;;;;;;;5.70;2.80;;;;;;;20.84;48.12;100354.03;679516;29;1121;-91
2023/09/20 01:02:09;;;;;;;5.13;2.67;;;;;;;20.79;47.99;100344.38;676005;29;1114;-87
2023/09/20 01:02:30;;;;;;;6.10;2.40;;;;;;;20.84;47.87;100361.97;677341;29;889;-88
2023/09/20 01:02:52;;;;;;;6.35;2.42;;;;;;;20.86;47.95;100360.16;679535;29;1238;-88
2023/09/20 01:03:19;;;;;;;6.07;2.20;;;;;;;20.77;47.99;100351.50;678964;29;1400;-90
2023/09/20 01:03:40;;;;;;;6.93;2.38;;;;;;;20.87;47.96;100356.59;674367;29;1545;-89
2023/09/20 01:04:05;;;;;;;9.10;2.70;;;;;;;20.82;48.05;100354.06;675228;29;1249;-93
2023/09/20 01:04:26;;;;;;;6.60;2.50;;;;;;;20.83;47.94;100363.75;677268;29;1196;-90
2023/09/20 01:04:47;;;;;;;6.47;2.40;;;;;;;20.79;48.12;100352.34;674844;29;1217;-89
2023/09/20 01:05:08;;;;;;;5.13;2.30;;;;;;;20.76;48.10;100343.56;679752;29;1101;-90
2023/09/20 01:05:34;;;;;;;6.35;2.38;;;;;;;20.83;48.25;100366.41;679833;29;1221;-87
2023/09/20 01:05:55;;;;;;;6.72;2.40;;;;;;;20.80;48.09;100353.22;682144;29;1107;-86
2023/09/20 01:06:17;;;;;;;6.40;2.30;;;;;;;20.84;48.16;100362.84;682590;28;1255;-88
2023/09/20 01:06:41;;;;;;;5.50;2.30;;;;;;;20.80;48.24;100361.19;679796;29;1191;-86
2023/09/20 01:07:01;;;;;;;5.35;2.40;;;;;;;20.77;48.24;100366.56;674737;29;1115;-89
2023/09/20 01:07:23;;;;;;;4.40;2.22;;;;;;;20.79;48.23;100351.47;677013;29;1160;-89
2023/09/20 01:07:44;;;;;;;3.50;2.00;;;;;;;20.72;48.41;100349.88;678885;29;1226;-88
2023/09/20 01:08:06;;;;;;;3.08;1.88;;;;;;;20.76;48.31;100356.81;679632;29;1127;-89
2023/09/20 01:08:27;;;;;;;4.80;2.20;;;;;;;20.73;48.27;100355.13;676680;29;1116;-87
2023/09/20 01:08:48;;;;;;;5.30;2.53;;;;;;;20.73;48.19;100349.84;676375;29;1182;-86
2023/09/20 01:09:09;;;;;;;6.07;2.83;;;;;;;20.72;48.05;100345.41;675300;29;1045;-87
2023/09/20 01:09:30;;;;;;;5.43;2.88;;;;;;;20.76;48.05;100357.72;674711;29;1255;-87
2023/09/20 01:09:51;;;;;;;5.57;2.80;;;;;;;20.86;48.19;100360.16;677005;29;1313;-88
2023/09/20 01:10:11;;;;;;;4.90;2.60;;;;;;;20.76;48.19;100357.72;683854;28;1402;-85
2023/09/20 01:10:33;;;;;;;5.35;2.60;;;;;;;20.84;48.30;100370.78;682548;29;1210;-88
2023/09/20 01:10:54;;;;;;;5.40;2.55;;;;;;;20.76;48.30;100356.81;674357;29;964;-87
2023/09/20 01:11:15;;;;;;;5.20;2.45;;;;;;;20.79;48.27;100357.63;676529;29;1201;-87
2023/09/20 01:11:36;;;;;;;4.90;2.30;;;;;;;20.78;48.28;100341.78;679391;29;1362;-90
2023/09/20 01:11:58;;;;;;;4.07;2.10;;;;;;;20.76;48.00;100347.09;672030;29;1219;-89
2023/09/20 01:12:19;;;;;;;4.47;2.25;;;;;;;20.76;48.10;100355.06;677192;29;1197;-89
2023/09/20 01:12:39;;;;;;;4.97;2.30;;;;;;;20.76;48.41;100354.19;677311;29;1019;-88
2023/09/20 01:13:02;;;;;;;5.25;2.55;;;;;;;20.90;48.12;100372.47;676270;29;1181;-92
2023/09/20 01:13:24;;;;;;;4.50;2.25;;;;;;;20.83;48.24;100358.44;674247;29;1274;-88
2023/09/20 01:13:46;;;;;;;4.03;2.17;;;;;;;20.78;48.11;100339.97;674541;29;1150;-85
2023/09/20 01:14:07;;;;;;;5.60;2.42;;;;;;;20.87;48.24;100364.56;680840;29;1331;-86
2023/09/20 01:14:28;;;;;;;6.10;2.88;;;;;;;20.86;48.18;100355.75;677159;29;1205;-85
2023/09/20 01:14:49;;;;;;;6.40;3.10;;;;;;;20.89;47.95;100360.97;679546;29;1197;-87
2023/09/20 01:15:10;;;;;;;5.28;2.90;;;;;;;20.79;48.04;100348.81;682217;29;1279;-88
2023/09/20 01:15:34;;;;;;;5.30;2.90;;;;;;;20.85;47.98;100353.13;679769;29;1220;-87
2023/09/20 01:15:54;;;;;;;5.13;2.45;;;;;;;20.80;48.36;100346.16;674338;29;1163;-86
2023/09/20 01:16:15;;;;;;;4.87;2.57;;;;;;;20.78;47.89;100347.94;674349;29;1385;-88
2023/09/20 01:16:36;;;;;;;4.47;2.40;;;;;;;20.81;48.12;100357.63;677018;29;1205;-86
2023/09/20 01:16:57;;;;;;;5.15;2.60;;;;;;;20.77;48.36;100351.50;676695;29;1907;-88
2023/09/20 01:17:17;;;;;;;6.20;2.50;;;;;;;20.80;47.97;100346.16;679497;29;1159;-86
2023/09/20 01:17:45;;;;;;;6.07;2.53;;;;;;;20.80;48.04;100354.09;677069;29;1188;-89
2023/09/20 01:18:07;;;;;;;5.90;2.33;;;;;;;20.77;48.43;100364.75;678958;29;1384;-87
2023/09/20 01:18:29;;;;;;;5.30;2.38;;;;;;;20.76;48.39;100341.81;677304;29;1313;-89
2023/09/20 01:18:50;;;;;;;4.55;2.30;;;;;;;20.81;48.21;100357.63;674173;29;1180;-86
2023/09/20 01:19:11;;;;;;;4.55;2.45;;;;;;;20.82;48.33;100364.66;672441;29;1113;-87
2023/09/20 01:19:32;;;;;;;4.47;2.40;;;;;;;20.87;48.30;100364.56;673932;29;1068;-87
2023/09/20 01:19:53;;;;;;;4.70;2.50;;;;;;;20.77;48.32;100351.50;676960;29;1266;-90
2023/09/20 01:20:15;;;;;;;4.90;2.40;;;;;;;20.87;48.32;100367.22;677050;29;1402;-85
2023/09/20 01:20:39;;;;;;;4.93;2.22;;;;;;;20.86;48.31;100354.88;680456;29;1351;-89
2023/09/20 01:21:00;;;;;;;5.05;2.38;;;;;;;20.84;48.28;100362.84;674944;29;1105;-88
2023/09/20 01:21:22;;;;;;;5.72;2.55;;;;;;;20.81;48.40;100355.84;679497;29;1439;-91
2023/09/20 01:21:43;;;;;;;5.65;2.70;;;;;;;20.81;48.24;100353.19;682893;28;1192;-89
2023/09/20 01:22:04;;;;;;;6.93;2.50;;;;;;;20.84;48.33;100356.69;674739;29;1341;-88
2023/09/20 01:22:25;;;;;;;7.20;2.35;;;;;;;20.78;48.35;100347.09;672453;29;1274;-87
2023/09/20 01:22:51;;;;;;;7.38;2.40;;;;;;;20.79;48.52;100346.19;672431;29;1067;-88
2023/09/20 01:23:15;;;;;;;5.80;2.70;;;;;;;20.75;48.48;100341.81;677694;29;1326;-88
2023/09/20 01:23:35;;;;;;;5.13;2.60;;;;;;;20.74;48.55;100340.97;677250;29;1365;-87
2023/09/20 01:23:56;;;;;;;5.10;2.70;;;;;;;20.80;48.40;100348.81;677488;29;1234;-88
2023/09/20 01:24:19;;;;;;;4.55;2.40;;;;;;;20.78;48.52;100353.25;677147;29;1261;-88
2023/09/20 01:24:40;;;;;;;4.65;2.50;;;;;;;20.72;48.71;100350.72;675207;29;995;-87
2023/09/20 01:25:02;;;;;;;4.10;2.20;;;;;;;20.72;48.79;100347.22;679695;29;1313;-90
2023/09/20 01:25:28;;;;;;;4.07;2.20;;;;;;;20.80;48.55;100366.47;680387;29;1299;-90
2023/09/20 01:25:48;;;;;;;4.07;2.10;;;;;;;20.72;48.65;100337.47;677564;29;1298;-90
2023/09/20 01:26:11;;;;;;;4.07;2.13;;;;;;;20.78;48.63;100347.09;669813;29;1227;-89
2023/09/20 01:26:33;;;;;;;3.72;2.03;;;;;;;20.78;48.45;100342.63;675243;29;1226;-89
2023/09/20 01:26:57;;;;;;;3.53;2.08;;;;;;;20.74;48.58;100332.13;677280;29;1398;-91
2023/09/20 01:27:18;;;;;;;4.13;2.10;;;;;;;20.77;48.71;100340.91;675100;29;1207;-91
2023/09/20 01:27:39;;;;;;;7.80;2.20;;;;;;;20.79;48.63;100344.38;674903;29;1208;-87
2023/09/20 01:28:05;;;;;;;8.32;2.20;;;;;;;20.84;48.67;100351.38;674889;29;1247;-90
2023/09/20 01:28:28;;;;;;;8.45;2.47;;;;;;;20.76;48.61;100331.19;677578;29;879;-88
2023/09/20 01:28:48;;;;;;;4.53;2.40;;;;;;;20.72;48.73;100334.81;677478;29;1110;-89
2023/09/20 01:29:09;;;;;;;4.25;2.20;;;;;;;20.75;48.66;100340.06;682584;28;977;-90
2023/09/20 01:29:30;;;;;;;4.20;2.05;;;;;;;20.80;48.70;100335.53;680573;29;1296;-90
2023/09/20 01:29:51;;;;;;;4.40;2.25;;;;;;;20.79;48.58;100335.56;682886;29;1159;-88
2023/09/20 01:30:12;;;;;;;3.90;2.20;;;;;;;20.86;48.55;100338.94;677940;29;1279;-93
2023/09/20 01:30:38;;;;;;;4.22;2.28;;;;;;;20.81;48.67;100341.69;677230;29;1129;-88
2023/09/20 01:31:04;;;;;;;4.22;2.20;;;;;;;20.86;48.57;100344.25;674907;29;1325;-87
2023/09/20 01:31:25;;;;;;;4.05;2.00;;;;;;;20.77;48.56;100334.75;675195;29;1265;-85
2023/09/20 01:31:47;;;;;;;4.40;2.30;;;;;;;20.87;48.43;100351.28;677284;29;1207;-85
2023/09/20 01:32:08;;;;;;;4.72;2.20;;;;;;;20.90;48.51;100346.81;678850;29;1093;-86
2023/09/20 01:32:29;;;;;;;5.10;2.40;;;;;;;20.91;48.50;100347.69;680458;29;1387;-88
2023/09/20 01:32:53;;;;;;;5.85;2.38;;;;;;;20.81;48.41;100337.28;680003;29;1104;-87
2023/09/20 01:33:15;;;;;;;6.35;2.65;;;;;;;20.81;48.76;100325.78;680029;29;1329;-90
2023/09/20 01:33:35;;;;;;;5.20;2.60;;;;;;;20.87;48.63;100336.28;680338;29;1214;-87
2023/09/20 01:33:57;;;;;;;4.80;2.60;;;;;;;20.88;48.58;100342.44;674762;29;1451;-90
2023/09/20 01:34:17;;;;;;;9.40;2.70;;;;;;;20.86;48.48;100344.25;672357;29;1171;-89
2023/09/20 01:34:38;;;;;;;9.75;2.60;;;;;;;20.92;48.60;100349.44;675049;29;1247;-89
2023/09/20 01:34:59;;;;;;;9.20;2.40;;;;;;;20.94;48.40;100343.19;680146;29;1274;-89
2023/09/20 01:35:22;;;;;;;4.65;2.30;;;;;;;20.97;48.52;100347.56;682876;29;1227;-92
2023/09/20 01:35:45;;;;;;;6.03;2.30;;;;;;;20.96;48.48;100345.78;682586;29;1269;-88
2023/09/20 01:36:06;;;;;;;6.60;2.40;;;;;;;20.90;48.45;100338.84;683005;29;1407;-88
2023/09/20 01:36:28;;;;;;;9.77;2.50;;;;;;;20.91;48.58;100345.03;680297;29;1265;-88
2023/09/20 01:36:50;;;;;;;14.35;2.60;;;;;;;20.96;48.45;100340.47;682287;29;1411;-89
2023/09/20 01:37:11;;;;;;;14.48;2.75;;;;;;;21.00;48.49;100339.53;677244;29;1976;-89
2023/09/20 01:37:32;;;;;;;12.43;2.35;;;;;;;20.96;48.62;100340.47;675170;29;1299;-88
2023/09/20 01:37:53;;;;;;;8.50;2.30;;;;;;;21.04;48.47;100345.63;677307;29;992;-90
2023/09/20 01:38:14;;;;;;;8.90;2.30;;;;;;;20.96;48.30;100332.53;677933;29;1213;-88
2023/09/20 01:38:35;;;;;;;5.70;2.33;;;;;;;21.10;48.29;100354.31;683218;29;1427;-88
2023/09/20 01:38:56;;;;;;;6.47;2.37;;;;;;;21.07;48.31;100343.78;682534;28;1182;-87
2023/09/20 01:39:18;;;;;;;8.82;2.50;;;;;;;21.08;48.16;100350.84;679982;29;1166;-90
2023/09/20 01:39:39;;;;;;;8.50;2.50;;;;;;;21.12;48.30;100351.63;682960;29;1168;-86
2023/09/20 01:39:59;;;;;;;5.00;2.40;;;;;;;21.06;48.38;100350.00;680221;29;1187;-89
2023/09/20 01:40:23;;;;;;;4.00;2.33;;;;;;;21.08;48.06;100345.53;677654;29;1304;-88
2023/09/20 01:40:46;;;;;;;5.03;2.42;;;;;;;21.18;48.17;100361.22;677721;29;1091;-94
2023/09/20 01:41:07;;;;;;;6.80;2.60;;;;;;;21.13;48.17;100349.88;680714;29;1389;-88
2023/09/20 01:41:28;;;;;;;6.72;2.47;;;;;;;21.12;48.21;100354.28;677416;29;1159;-89
2023/09/20 01:41:49;;;;;;;5.55;2.40;;;;;;;21.10;48.23;100354.31;677686;29;1502;-89
2023/09/20 01:42:10;;;;;;;3.90;2.10;;;;;;;21.06;48.27;100342.03;676597;29;1252;-90
2023/09/20 01:42:31;;;;;;;3.80;2.30;;;;;;;21.13;48.10;100347.22;680524;29;812;-90
2023/09/20 01:42:53;;;;;;;3.70;2.28;;;;;;;21.17;47.87;100338.25;679239;29;1210;-88
2023/09/20 01:43:14;;;;;;;4.77;2.47;;;;;;;21.21;47.97;100355.88;677564;29;1198;-90
2023/09/20 01:43:36;;;;;;;8.03;2.57;;;;;;;21.08;48.27;100342.88;674766;29;1171;-86
2023/09/20 01:43:58;;;;;;;9.27;2.70;;;;;;;21.17;47.99;100341.81;674881;29;1422;-86
2023/09/20 01:44:19;;;;;;;8.30;2.58;;;;;;;21.19;48.17;100345.28;680163;29;1340;-89
2023/09/20 01:44:41;;;;;;;6.32;2.30;;;;;;;21.16;48.12;100341.81;679537;29;1235;-89